Air Navigation Services of Czech Republic
Airport: LKKB Updated:  23.09.2017 23:08:15  UTC
 METAR LKKB 23.09. 23:00 ...
METAR LKKB 232300Z 27004KT 9999 -RA NSC 10/10 Q1021 =
 TAF LKKB 23.09. 17:00 ...
TAF LKKB 231700Z 2318/2418 33008KT 9999 BKN030      TEMPO 2318/2416 7000 RA BKN020      TEMPO 2318/2407 3000 RA BR BKN008=